Time;durP1;ratioP1;P1;durP2;ratioP2;P2;SDS_P1;SDS_P2;PMS_P1;PMS_P2;Temp;Humidity;BMP_temperature;BMP_pressure;BME280_temperature;BME280_humidity;BME280_pressure;Samples;Min_cycle;Max_cycle;Signal;HPM_P1;HPM_P2
2023/10/21 00:01:05;;;;;;;14.57;1.60;;;;;;;;;;5000845;28;20409;-79
2023/10/21 00:03:32;;;;;;;15.23;1.80;;;;;;;;;;5014548;28;20501;-79
2023/10/21 00:06:00;;;;;;;15.30;1.67;;;;;;;;;;5009956;28;20404;-77
2023/10/21 00:08:27;;;;;;;16.00;1.77;;;;;;;;;;5013365;28;20439;-78
2023/10/21 00:11:00;;;;;;;17.80;1.70;;;;;;;;;;5013553;28;20409;-79
2023/10/21 00:13:27;;;;;;;15.20;1.80;;;;;;;;;;4982648;28;20511;-80
2023/10/21 00:15:53;;;;;;;15.35;2.10;;;;;;;;;;4993802;28;20417;-77
2023/10/21 00:18:20;;;;;;;14.48;1.77;;;;;;;;;;4994922;28;20506;-78
2023/10/21 00:20:47;;;;;;;18.35;2.55;;;;;;;;;;5028160;28;20432;-80
2023/10/21 00:23:15;;;;;;;14.63;1.70;;;;;;;;;;5009877;28;20537;-78
2023/10/21 00:25:41;;;;;;;14.97;1.90;;;;;;;;;;4996231;28;20766;-78
2023/10/21 00:28:08;;;;;;;14.52;2.05;;;;;;;;;;5009944;28;20405;-78
2023/10/21 00:30:35;;;;;;;16.20;2.40;;;;;;;;;;4995480;28;21152;-79
2023/10/21 00:33:01;;;;;;;15.13;1.90;;;;;;;;;;4979878;28;20429;-79
2023/10/21 00:35:29;;;;;;;15.70;1.80;;;;;;;;;;4993164;28;20808;-79
2023/10/21 00:37:55;;;;;;;14.82;2.00;;;;;;;;;;5012156;28;20405;-77
2023/10/21 00:40:23;;;;;;;16.05;1.85;;;;;;;;;;4996684;28;20508;-78
2023/10/21 00:42:50;;;;;;;14.73;1.80;;;;;;;;;;5011644;28;20404;-78
2023/10/21 00:45:16;;;;;;;15.27;2.08;;;;;;;;;;5013290;28;20428;-78
2023/10/21 00:47:43;;;;;;;15.50;1.80;;;;;;;;;;5003914;28;20789;-79
2023/10/21 00:50:10;;;;;;;16.20;2.00;;;;;;;;;;5007787;28;21202;-78
2023/10/21 00:52:42;;;;;;;17.48;2.20;;;;;;;;;;4998861;28;20520;-77
2023/10/21 00:55:10;;;;;;;15.10;2.00;;;;;;;;;;5011146;28;20912;-78
2023/10/21 00:57:38;;;;;;;15.95;1.90;;;;;;;;;;4994851;28;20417;-79
2023/10/21 01:00:10;;;;;;;16.80;1.92;;;;;;;;;;5001114;28;20417;-78
2023/10/21 01:02:38;;;;;;;15.77;2.22;;;;;;;;;;5011890;28;20409;-79
2023/10/21 01:05:05;;;;;;;17.10;1.90;;;;;;;;;;4997531;28;20400;-79
2023/10/21 01:07:32;;;;;;;16.73;2.30;;;;;;;;;;5010074;28;20475;-77
2023/10/21 01:09:58;;;;;;;16.40;1.90;;;;;;;;;;4993204;28;20803;-78
2023/10/21 01:12:25;;;;;;;16.05;2.05;;;;;;;;;;4980369;28;20603;-78
2023/10/21 01:14:53;;;;;;;16.33;2.20;;;;;;;;;;4994650;28;20751;-79
2023/10/21 01:17:19;;;;;;;16.40;2.30;;;;;;;;;;4994211;28;20490;-77
2023/10/21 01:19:46;;;;;;;14.88;2.00;;;;;;;;;;4991614;28;20500;-78
2023/10/21 01:22:13;;;;;;;15.65;2.20;;;;;;;;;;4994096;28;20795;-78
2023/10/21 01:24:41;;;;;;;16.50;2.10;;;;;;;;;;5013406;28;20951;-79
2023/10/21 01:27:07;;;;;;;16.70;1.90;;;;;;;;;;5009054;28;20474;-78
2023/10/21 01:29:34;;;;;;;16.33;2.00;;;;;;;;;;5001235;28;21177;-78
2023/10/21 01:32:01;;;;;;;16.27;2.03;;;;;;;;;;4996132;28;20436;-78
2023/10/21 01:34:28;;;;;;;17.25;2.00;;;;;;;;;;4978029;28;20431;-79
2023/10/21 01:36:54;;;;;;;17.35;2.03;;;;;;;;;;4992920;28;20408;-78
2023/10/21 01:39:21;;;;;;;14.90;1.90;;;;;;;;;;4992577;28;20556;-77
2023/10/21 01:41:49;;;;;;;17.70;2.30;;;;;;;;;;4991951;28;20435;-77
2023/10/21 01:44:16;;;;;;;15.55;2.50;;;;;;;;;;4998917;28;20420;-78
2023/10/21 01:46:42;;;;;;;16.20;2.40;;;;;;;;;;5010547;28;20412;-76
2023/10/21 01:49:09;;;;;;;16.67;2.30;;;;;;;;;;4992406;28;20494;-78
2023/10/21 01:51:35;;;;;;;16.73;2.33;;;;;;;;;;4999073;28;20421;-78
2023/10/21 01:54:04;;;;;;;15.10;2.30;;;;;;;;;;4993752;28;20444;-78
2023/10/21 01:56:31;;;;;;;15.60;2.03;;;;;;;;;;5013251;28;20413;-78
2023/10/21 01:58:59;;;;;;;15.40;1.80;;;;;;;;;;4993240;28;20417;-77
2023/10/21 02:01:26;;;;;;;16.40;2.20;;;;;;;;;;4976622;28;20429;-76
2023/10/21 02:03:53;;;;;;;14.90;2.13;;;;;;;;;;4991252;28;20413;-77
2023/10/21 02:06:21;;;;;;;16.25;2.25;;;;;;;;;;4992984;28;20439;-77
2023/10/21 02:08:48;;;;;;;17.25;2.15;;;;;;;;;;5010301;28;20413;-77
2023/10/21 02:11:19;;;;;;;16.40;2.65;;;;;;;;;;4992757;28;20441;-77
2023/10/21 02:13:45;;;;;;;18.95;2.10;;;;;;;;;;4994826;28;20413;-77
2023/10/21 02:16:13;;;;;;;15.48;2.20;;;;;;;;;;4993147;28;20410;-77
2023/10/21 02:18:40;;;;;;;16.83;2.60;;;;;;;;;;4991670;28;20490;-77
2023/10/21 02:21:07;;;;;;;16.50;2.25;;;;;;;;;;5007052;28;20414;-76
2023/10/21 02:23:34;;;;;;;15.20;2.20;;;;;;;;;;4997623;28;20459;-78
2023/10/21 02:26:03;;;;;;;15.40;2.40;;;;;;;;;;4998012;28;20425;-79
2023/10/21 02:28:30;;;;;;;16.45;2.40;;;;;;;;;;5009852;28;20411;-78
2023/10/21 02:30:57;;;;;;;16.63;2.80;;;;;;;;;;5026160;28;20512;-77
2023/10/21 02:33:25;;;;;;;16.08;2.83;;;;;;;;;;5002685;28;20466;-78
2023/10/21 02:35:52;;;;;;;16.60;3.40;;;;;;;;;;5009237;28;20503;-77
2023/10/21 02:38:19;;;;;;;18.00;3.00;;;;;;;;;;5010116;28;20413;-78
2023/10/21 02:40:46;;;;;;;17.80;3.10;;;;;;;;;;4992535;28;20416;-76
2023/10/21 02:43:13;;;;;;;17.60;3.40;;;;;;;;;;5001838;28;20429;-76
2023/10/21 02:45:40;;;;;;;18.20;3.33;;;;;;;;;;4991883;28;20445;-79
2023/10/21 02:48:06;;;;;;;16.05;3.10;;;;;;;;;;5009980;28;20411;-78
2023/10/21 02:50:34;;;;;;;18.30;3.85;;;;;;;;;;4992481;28;20475;-77
2023/10/21 02:53:01;;;;;;;16.95;3.35;;;;;;;;;;5006791;28;21020;-77
2023/10/21 02:55:29;;;;;;;17.98;4.50;;;;;;;;;;4999005;28;20880;-77
2023/10/21 02:57:56;;;;;;;20.85;4.00;;;;;;;;;;4990334;28;20820;-79
2023/10/21 03:00:23;;;;;;;20.10;3.40;;;;;;;;;;5009354;28;20413;-78
2023/10/21 03:02:50;;;;;;;18.20;4.10;;;;;;;;;;4983381;28;21118;-78
2023/10/21 03:05:17;;;;;;;21.33;4.38;;;;;;;;;;5012274;28;20495;-77
2023/10/21 03:07:45;;;;;;;18.65;4.50;;;;;;;;;;5009855;28;20496;-77
2023/10/21 03:10:11;;;;;;;16.92;3.28;;;;;;;;;;4993186;28;20452;-77
2023/10/21 03:12:38;;;;;;;17.60;3.10;;;;;;;;;;5011864;28;20828;-78
2023/10/21 03:15:08;;;;;;;16.67;3.50;;;;;;;;;;4977147;28;20417;-80
2023/10/21 03:17:34;;;;;;;16.97;3.27;;;;;;;;;;4991299;28;20412;-79
2023/10/21 03:20:03;;;;;;;16.80;3.10;;;;;;;;;;4992841;28;20409;-79
2023/10/21 03:22:29;;;;;;;15.90;2.58;;;;;;;;;;5011763;28;20841;-80
2023/10/21 03:24:57;;;;;;;15.65;2.53;;;;;;;;;;5010149;28;20409;-78
2023/10/21 03:27:25;;;;;;;19.65;2.72;;;;;;;;;;5006372;28;20975;-78
2023/10/21 03:29:51;;;;;;;16.70;2.40;;;;;;;;;;4988481;28;20436;-78
2023/10/21 03:32:18;;;;;;;15.50;2.50;;;;;;;;;;4993653;28;20420;-78
2023/10/21 03:34:45;;;;;;;17.50;2.58;;;;;;;;;;4992423;28;20776;-78
2023/10/21 03:37:11;;;;;;;17.40;2.50;;;;;;;;;;4998225;28;20408;-77
2023/10/21 03:39:38;;;;;;;15.50;2.20;;;;;;;;;;4993111;28;20901;-80
2023/10/21 03:42:07;;;;;;;16.00;2.10;;;;;;;;;;4990526;28;20423;-75
2023/10/21 03:44:35;;;;;;;15.90;2.60;;;;;;;;;;4991886;28;20479;-77
2023/10/21 03:47:02;;;;;;;15.50;2.30;;;;;;;;;;4994221;28;20856;-79
2023/10/21 03:49:30;;;;;;;15.48;2.10;;;;;;;;;;4993598;28;20888;-78
2023/10/21 03:51:56;;;;;;;15.35;2.40;;;;;;;;;;5012718;28;20975;-77
2023/10/21 03:54:24;;;;;;;16.33;3.00;;;;;;;;;;4999690;28;20405;-78
2023/10/21 03:56:51;;;;;;;16.33;2.30;;;;;;;;;;5016009;28;20418;-77
2023/10/21 03:59:19;;;;;;;16.65;2.40;;;;;;;;;;4979560;28;20467;-78
2023/10/21 04:01:46;;;;;;;16.25;2.70;;;;;;;;;;5009407;28;20482;-82
2023/10/21 04:04:13;;;;;;;20.20;2.78;;;;;;;;;;5004491;28;20510;-83
2023/10/21 04:06:40;;;;;;;15.13;2.40;;;;;;;;;;5012476;28;20535;-81
2023/10/21 04:09:08;;;;;;;16.37;2.20;;;;;;;;;;5002167;28;20400;-81
2023/10/21 04:11:35;;;;;;;17.17;2.78;;;;;;;;;;4980691;28;20428;-81
2023/10/21 04:14:04;;;;;;;16.90;2.60;;;;;;;;;;4995189;28;20428;-80
2023/10/21 04:16:32;;;;;;;15.38;2.20;;;;;;;;;;4996385;28;20412;-79
2023/10/21 04:18:58;;;;;;;15.57;2.10;;;;;;;;;;5013183;28;20413;-79
2023/10/21 04:21:25;;;;;;;15.52;1.95;;;;;;;;;;4992314;28;20814;-79
2023/10/21 04:23:52;;;;;;;15.70;2.40;;;;;;;;;;4993235;28;20435;-78
2023/10/21 04:26:19;;;;;;;16.02;2.47;;;;;;;;;;4993760;28;20411;-79
2023/10/21 04:28:47;;;;;;;18.10;2.40;;;;;;;;;;5012285;28;20944;-77
2023/10/21 04:31:13;;;;;;;16.70;3.55;;;;;;;;;;4994780;28;20809;-78
2023/10/21 04:33:41;;;;;;;15.57;2.63;;;;;;;;;;5011928;28;20414;-80
2023/10/21 04:36:08;;;;;;;16.15;2.80;;;;;;;;;;5013887;28;20466;-77
2023/10/21 04:38:35;;;;;;;17.40;2.70;;;;;;;;;;4983773;28;20932;-78
2023/10/21 04:41:02;;;;;;;17.93;3.10;;;;;;;;;;4995022;28;20978;-77
2023/10/21 04:43:29;;;;;;;16.05;2.90;;;;;;;;;;4997189;28;20413;-78
2023/10/21 04:45:55;;;;;;;16.60;2.75;;;;;;;;;;5012679;28;20416;-78
2023/10/21 04:48:22;;;;;;;17.30;2.60;;;;;;;;;;4995700;28;20420;-78
2023/10/21 04:50:50;;;;;;;15.15;2.28;;;;;;;;;;5011158;28;20424;-79
2023/10/21 04:53:17;;;;;;;15.82;2.30;;;;;;;;;;5012004;28;20426;-79
2023/10/21 04:55:43;;;;;;;15.97;2.10;;;;;;;;;;5010664;28;20454;-78
2023/10/21 04:58:10;;;;;;;17.08;2.33;;;;;;;;;;4994451;28;20861;-79
2023/10/21 05:00:36;;;;;;;15.00;2.03;;;;;;;;;;5014575;28;20405;-79
2023/10/21 05:03:03;;;;;;;15.05;2.00;;;;;;;;;;5011298;28;20765;-76
2023/10/21 05:05:30;;;;;;;19.70;1.98;;;;;;;;;;5013653;28;20412;-78
2023/10/21 05:07:58;;;;;;;17.00;1.80;;;;;;;;;;4985061;28;20431;-79
2023/10/21 05:10:24;;;;;;;17.50;1.80;;;;;;;;;;5004247;28;20729;-80
2023/10/21 05:12:51;;;;;;;15.25;1.95;;;;;;;;;;5001848;28;20455;-79
2023/10/21 05:15:18;;;;;;;15.07;2.00;;;;;;;;;;4996992;28;20885;-79
2023/10/21 05:17:44;;;;;;;16.50;2.35;;;;;;;;;;5008884;28;20885;-80
2023/10/21 05:20:11;;;;;;;15.70;2.60;;;;;;;;;;4990708;28;20425;-77
2023/10/21 05:22:38;;;;;;;15.80;2.50;;;;;;;;;;4994433;28;20523;-80
2023/10/21 05:25:07;;;;;;;19.15;3.20;;;;;;;;;;5011933;28;20742;-79
2023/10/21 05:27:34;;;;;;;17.00;2.92;;;;;;;;;;4999163;28;20419;-79
2023/10/21 05:30:01;;;;;;;16.73;2.63;;;;;;;;;;5011491;28;21048;-78
2023/10/21 05:32:28;;;;;;;17.08;2.90;;;;;;;;;;4974189;28;20418;-80
2023/10/21 05:34:55;;;;;;;15.40;2.50;;;;;;;;;;4993335;28;20423;-78
2023/10/21 05:37:21;;;;;;;17.58;2.63;;;;;;;;;;4991854;28;20455;-79
2023/10/21 05:39:48;;;;;;;16.67;2.95;;;;;;;;;;5009209;28;20414;-79
2023/10/21 05:42:16;;;;;;;15.77;2.60;;;;;;;;;;4994923;28;20417;-78
2023/10/21 05:44:42;;;;;;;15.73;2.50;;;;;;;;;;4992971;28;20420;-78
2023/10/21 05:47:15;;;;;;;15.10;1.70;;;;;;;;;;5011763;28;20427;-79
2023/10/21 05:49:42;;;;;;;17.30;2.10;;;;;;;;;;5011089;28;20975;-79
2023/10/21 05:52:08;;;;;;;15.30;2.00;;;;;;;;;;5010807;28;20463;-79
2023/10/21 05:54:35;;;;;;;16.80;2.00;;;;;;;;;;4980815;28;20950;-81
2023/10/21 05:57:02;;;;;;;14.88;1.90;;;;;;;;;;4991050;28;20428;-80
2023/10/21 05:59:31;;;;;;;15.10;1.90;;;;;;;;;;4992443;28;20416;-79
2023/10/21 06:01:58;;;;;;;15.75;2.00;;;;;;;;;;5010109;28;20476;-80
2023/10/21 06:04:24;;;;;;;15.77;2.15;;;;;;;;;;5010621;28;20483;-78
2023/10/21 06:06:54;;;;;;;15.40;1.88;;;;;;;;;;4992293;28;20511;-79
2023/10/21 06:09:23;;;;;;;14.90;1.80;;;;;;;;;;4991931;28;20448;-79
2023/10/21 06:11:51;;;;;;;15.40;1.77;;;;;;;;;;5010276;28;20452;-80
2023/10/21 06:14:17;;;;;;;15.80;2.00;;;;;;;;;;5000467;28;20417;-79
2023/10/21 06:16:46;;;;;;;14.50;1.92;;;;;;;;;;4995773;28;20778;-79
2023/10/21 06:19:12;;;;;;;15.43;1.63;;;;;;;;;;5010632;28;20412;-78
2023/10/21 06:21:40;;;;;;;15.50;1.80;;;;;;;;;;5006127;28;20413;-79
2023/10/21 06:24:07;;;;;;;15.43;1.70;;;;;;;;;;4992602;28;20409;-80
2023/10/21 06:26:34;;;;;;;15.50;1.63;;;;;;;;;;4993571;28;20479;-79
2023/10/21 06:29:00;;;;;;;15.50;1.90;;;;;;;;;;5010642;28;20412;-77
2023/10/21 06:31:27;;;;;;;14.80;1.90;;;;;;;;;;4989989;28;20779;-80
2023/10/21 06:33:55;;;;;;;16.80;2.10;;;;;;;;;;5013030;28;20410;-77
2023/10/21 06:36:21;;;;;;;17.48;1.92;;;;;;;;;;4993144;28;20459;-80
2023/10/21 06:38:49;;;;;;;15.75;1.80;;;;;;;;;;5009312;28;20409;-79
2023/10/21 06:41:16;;;;;;;16.10;1.90;;;;;;;;;;5010272;28;20432;-80
2023/10/21 06:43:43;;;;;;;14.80;1.70;;;;;;;;;;4993126;28;20401;-77
2023/10/21 06:46:10;;;;;;;15.00;1.95;;;;;;;;;;5011064;28;20413;-79
2023/10/21 06:48:38;;;;;;;15.70;1.70;;;;;;;;;;4999860;28;20408;-80
2023/10/21 06:51:06;;;;;;;15.63;1.80;;;;;;;;;;4995655;28;20439;-79
2023/10/21 06:53:32;;;;;;;15.40;1.65;;;;;;;;;;4991318;28;20406;-80
2023/10/21 06:55:59;;;;;;;15.55;1.90;;;;;;;;;;4990166;28;20432;-78
2023/10/21 06:58:26;;;;;;;17.13;1.80;;;;;;;;;;5009536;28;20417;-80
2023/10/21 07:00:52;;;;;;;14.47;1.60;;;;;;;;;;4991216;28;20441;-78
2023/10/21 07:03:19;;;;;;;14.60;1.70;;;;;;;;;;5010307;28;20408;-81
2023/10/21 07:05:46;;;;;;;14.88;1.50;;;;;;;;;;5010784;28;20427;-81
2023/10/21 07:08:14;;;;;;;15.50;1.60;;;;;;;;;;5011049;28;20427;-81
2023/10/21 07:10:40;;;;;;;16.00;1.30;;;;;;;;;;5010708;28;20520;-77
2023/10/21 07:13:08;;;;;;;13.90;1.20;;;;;;;;;;5010439;28;20496;-80
2023/10/21 07:15:35;;;;;;;16.40;1.20;;;;;;;;;;4995769;28;20422;-80
2023/10/21 07:18:02;;;;;;;13.98;1.15;;;;;;;;;;5007952;28;20515;-80
2023/10/21 07:20:28;;;;;;;14.02;1.15;;;;;;;;;;5007519;28;20408;-80
2023/10/21 07:22:55;;;;;;;14.13;1.13;;;;;;;;;;4995565;28;20417;-81
2023/10/21 07:25:23;;;;;;;15.95;1.30;;;;;;;;;;5012426;28;20494;-76
2023/10/21 07:27:51;;;;;;;14.10;1.20;;;;;;;;;;4997824;28;20420;-80
2023/10/21 07:30:18;;;;;;;15.10;1.50;;;;;;;;;;5013924;28;20414;-79
2023/10/21 07:32:44;;;;;;;15.70;1.20;;;;;;;;;;5013261;28;20415;-80
2023/10/21 07:35:11;;;;;;;15.30;1.30;;;;;;;;;;4997044;28;20503;-80
2023/10/21 07:37:38;;;;;;;15.13;1.20;;;;;;;;;;4996606;28;20446;-79
2023/10/21 07:40:05;;;;;;;13.90;1.10;;;;;;;;;;5013523;28;20416;-81
2023/10/21 07:42:33;;;;;;;14.73;1.20;;;;;;;;;;4996588;28;20507;-78
2023/10/21 07:45:00;;;;;;;13.85;1.10;;;;;;;;;;4987850;28;20428;-81
2023/10/21 07:47:27;;;;;;;14.50;1.10;;;;;;;;;;4994901;28;20931;-81
2023/10/21 07:49:54;;;;;;;14.00;1.00;;;;;;;;;;5002468;28;20420;-81
2023/10/21 07:52:22;;;;;;;14.82;1.00;;;;;;;;;;5014331;28;20464;-79
2023/10/21 07:54:48;;;;;;;13.90;1.00;;;;;;;;;;5014666;28;20789;-79
2023/10/21 07:57:15;;;;;;;17.60;1.00;;;;;;;;;;4993858;28;20503;-78
2023/10/21 07:59:44;;;;;;;13.70;1.00;;;;;;;;;;5002243;28;20439;-78
2023/10/21 08:02:10;;;;;;;13.90;1.10;;;;;;;;;;5012749;28;20444;-76
2023/10/21 08:04:37;;;;;;;14.80;1.00;;;;;;;;;;5013975;28;20413;-78
2023/10/21 08:07:04;;;;;;;14.20;1.10;;;;;;;;;;4995240;28;20772;-79
2023/10/21 08:09:31;;;;;;;14.05;1.00;;;;;;;;;;4998130;28;20415;-79
2023/10/21 08:11:58;;;;;;;13.85;1.02;;;;;;;;;;4987854;28;20435;-80
2023/10/21 08:14:26;;;;;;;14.15;0.95;;;;;;;;;;5001408;28;20490;-80
2023/10/21 08:16:54;;;;;;;13.90;0.90;;;;;;;;;;5012007;28;20412;-79
2023/10/21 08:19:22;;;;;;;13.90;1.00;;;;;;;;;;5006886;28;20828;-80
2023/10/21 08:21:49;;;;;;;14.10;0.95;;;;;;;;;;5013189;28;20869;-80
2023/10/21 08:24:16;;;;;;;14.00;1.00;;;;;;;;;;4994396;28;20423;-81
2023/10/21 08:26:42;;;;;;;14.00;0.90;;;;;;;;;;4994210;28;20425;-80
2023/10/21 08:29:10;;;;;;;13.90;1.00;;;;;;;;;;5012599;28;20404;-79
2023/10/21 08:31:37;;;;;;;14.10;0.90;;;;;;;;;;4997266;28;20788;-79
2023/10/21 08:34:09;;;;;;;15.35;1.00;;;;;;;;;;4994995;28;20415;-80
2023/10/21 08:36:35;;;;;;;14.18;1.30;;;;;;;;;;4994623;28;20539;-80
2023/10/21 08:39:06;;;;;;;14.02;0.90;;;;;;;;;;4995434;28;20415;-78
2023/10/21 08:41:35;;;;;;;14.20;1.00;;;;;;;;;;4993162;28;20413;-80
2023/10/21 08:44:02;;;;;;;15.40;1.30;;;;;;;;;;4996351;28;20525;-79
2023/10/21 08:46:30;;;;;;;17.20;1.23;;;;;;;;;;4997306;28;20458;-79
2023/10/21 08:48:57;;;;;;;14.70;1.10;;;;;;;;;;5000084;28;20448;-80
2023/10/21 08:51:29;;;;;;;15.40;1.30;;;;;;;;;;5011949;28;20429;-78
2023/10/21 08:54:00;;;;;;;14.70;1.10;;;;;;;;;;5012350;28;20404;-78
2023/10/21 08:56:29;;;;;;;14.00;1.00;;;;;;;;;;4995528;28;20407;-79
2023/10/21 08:58:59;;;;;;;16.20;1.08;;;;;;;;;;5009615;28;20405;-77
2023/10/21 09:01:25;;;;;;;14.18;1.02;;;;;;;;;;4993412;28;20925;-77
2023/10/21 09:03:52;;;;;;;13.90;1.00;;;;;;;;;;4996374;28;20567;-76
2023/10/21 09:06:20;;;;;;;14.32;1.20;;;;;;;;;;4993966;28;20441;-79
2023/10/21 09:08:48;;;;;;;15.93;1.20;;;;;;;;;;4993556;28;20482;-79
2023/10/21 09:11:18;;;;;;;14.20;1.30;;;;;;;;;;5012151;28;20460;-77
2023/10/21 09:13:49;;;;;;;16.52;1.27;;;;;;;;;;4994574;28;20427;-78
2023/10/21 09:16:19;;;;;;;14.90;1.30;;;;;;;;;;4995574;28;20472;-80
2023/10/21 09:18:57;;;;;;;14.90;1.00;;;;;;;;;;4994874;28;20437;-76
2023/10/21 09:21:32;;;;;;;20.13;1.60;;;;;;;;;;4999760;28;20715;-76
2023/10/21 09:24:01;;;;;;;14.30;1.00;;;;;;;;;;5012529;28;20915;-81
2023/10/21 09:26:33;;;;;;;16.13;1.23;;;;;;;;;;5012733;28;20412;-77
2023/10/21 09:29:08;;;;;;;14.80;1.10;;;;;;;;;;4993249;28;20432;-79
2023/10/21 09:31:42;;;;;;;14.30;1.10;;;;;;;;;;5012231;28;20425;-80
2023/10/21 09:34:23;;;;;;;14.90;1.10;;;;;;;;;;5009375;28;20430;-82
2023/10/21 09:36:52;;;;;;;14.70;1.10;;;;;;;;;;4994129;28;20436;-77
2023/10/21 09:39:20;;;;;;;16.95;1.25;;;;;;;;;;4995137;28;20789;-78
2023/10/21 09:41:47;;;;;;;16.50;1.10;;;;;;;;;;4991807;28;20420;-78
2023/10/21 09:44:15;;;;;;;14.80;1.00;;;;;;;;;;4983826;28;20435;-79
2023/10/21 09:46:43;;;;;;;15.23;1.30;;;;;;;;;;5003880;28;20428;-76
2023/10/21 09:49:11;;;;;;;15.85;1.25;;;;;;;;;;5001254;28;20794;-77
2023/10/21 09:51:45;;;;;;;14.50;1.20;;;;;;;;;;4998681;28;20429;-76
2023/10/21 09:54:14;;;;;;;15.88;1.10;;;;;;;;;;4992700;28;20506;-76
2023/10/21 09:56:43;;;;;;;15.90;1.70;;;;;;;;;;5011123;28;20416;-72
2023/10/21 09:59:10;;;;;;;16.08;1.20;;;;;;;;;;4992968;28;20448;-75
2023/10/21 10:01:39;;;;;;;14.80;1.10;;;;;;;;;;4992519;28;20420;-76
2023/10/21 10:04:09;;;;;;;16.92;1.30;;;;;;;;;;4993942;28;20491;-77
2023/10/21 10:06:38;;;;;;;15.30;1.20;;;;;;;;;;4993865;28;20504;-77
2023/10/21 10:09:09;;;;;;;14.48;1.10;;;;;;;;;;5010435;28;20423;-78
2023/10/21 10:11:39;;;;;;;15.10;1.20;;;;;;;;;;5013627;28;20416;-75
2023/10/21 10:14:11;;;;;;;14.68;1.10;;;;;;;;;;4994744;28;20424;-76
2023/10/21 10:16:40;;;;;;;13.90;1.00;;;;;;;;;;4994910;28;20845;-78
2023/10/21 10:19:09;;;;;;;14.90;1.10;;;;;;;;;;5012592;28;20404;-78
2023/10/21 10:21:36;;;;;;;14.00;1.00;;;;;;;;;;5012936;28;21256;-74
2023/10/21 10:24:03;;;;;;;14.20;0.90;;;;;;;;;;5011833;28;20419;-76
2023/10/21 10:26:33;;;;;;;16.20;1.00;;;;;;;;;;5011792;28;20428;-75
2023/10/21 10:29:15;;;;;;;14.30;0.90;;;;;;;;;;4995997;28;20481;-74
2023/10/21 10:31:44;;;;;;;14.10;0.90;;;;;;;;;;5008198;28;20424;-76
2023/10/21 10:34:16;;;;;;;14.02;1.05;;;;;;;;;;5000643;28;20418;-76
2023/10/21 10:36:42;;;;;;;14.30;1.10;;;;;;;;;;5010320;28;20448;-76
2023/10/21 10:39:36;;;;;;;13.90;1.00;;;;;;;;;;4991604;28;20983;-77
2023/10/21 10:42:04;;;;;;;14.00;1.00;;;;;;;;;;4988171;28;20409;-81
2023/10/21 10:44:31;;;;;;;13.80;0.90;;;;;;;;;;5014228;28;20461;-79
2023/10/21 10:47:00;;;;;;;14.00;1.00;;;;;;;;;;5009742;28;20649;-76
2023/10/21 10:49:28;;;;;;;14.75;1.10;;;;;;;;;;5007850;28;20467;-75
2023/10/21 10:51:55;;;;;;;14.90;1.10;;;;;;;;;;4999177;28;20471;-79
2023/10/21 10:54:25;;;;;;;14.88;1.05;;;;;;;;;;4999817;28;20475;-77
2023/10/21 10:56:54;;;;;;;18.20;1.30;;;;;;;;;;5012040;28;20428;-78
2023/10/21 10:59:23;;;;;;;15.05;0.90;;;;;;;;;;4995546;28;20418;-78
2023/10/21 11:01:56;;;;;;;14.20;0.90;;;;;;;;;;4999389;28;20427;-79
2023/10/21 11:04:24;;;;;;;13.98;1.00;;;;;;;;;;4981312;28;20422;-76
2023/10/21 11:06:50;;;;;;;15.52;0.93;;;;;;;;;;5015928;28;20487;-76
2023/10/21 11:09:20;;;;;;;14.13;1.00;;;;;;;;;;5012019;28;20432;-75
2023/10/21 11:11:47;;;;;;;14.20;1.20;;;;;;;;;;5012821;28;20947;-80
2023/10/21 11:14:34;;;;;;;14.25;1.00;;;;;;;;;;5002157;28;20415;-77
2023/10/21 11:17:01;;;;;;;14.32;1.40;;;;;;;;;;5012903;28;20413;-76
2023/10/21 11:19:30;;;;;;;15.07;1.00;;;;;;;;;;5013614;28;20809;-79
2023/10/21 11:21:56;;;;;;;13.80;0.90;;;;;;;;;;5012043;28;20504;-77
2023/10/21 11:24:26;;;;;;;15.10;1.90;;;;;;;;;;4998064;28;20420;-77
2023/10/21 11:26:53;;;;;;;14.70;1.10;;;;;;;;;;4996123;28;20746;-77
2023/10/21 11:29:20;;;;;;;14.00;1.00;;;;;;;;;;4993687;28;20422;-76
2023/10/21 11:31:46;;;;;;;16.00;0.90;;;;;;;;;;5010351;28;20445;-75
2023/10/21 11:34:14;;;;;;;15.07;1.20;;;;;;;;;;4991732;28;20454;-77
2023/10/21 11:36:44;;;;;;;14.30;1.10;;;;;;;;;;4992106;28;20432;-77
2023/10/21 11:39:14;;;;;;;14.43;1.02;;;;;;;;;;4996568;28;20428;-73
2023/10/21 11:41:41;;;;;;;15.50;1.45;;;;;;;;;;4994561;28;20427;-78
2023/10/21 11:44:09;;;;;;;14.20;1.20;;;;;;;;;;4995713;28;20421;-76
2023/10/21 11:46:38;;;;;;;17.40;1.30;;;;;;;;;;5002073;28;20913;-75
2023/10/21 11:49:13;;;;;;;17.70;1.80;;;;;;;;;;4981945;28;20944;-75
2023/10/21 11:51:41;;;;;;;15.70;1.30;;;;;;;;;;4994775;28;20440;-75
2023/10/21 11:54:17;;;;;;;16.77;1.30;;;;;;;;;;5000869;28;20448;-78
2023/10/21 12:24:48;;;;;;;16.73;1.90;;;;;;;;;;5009434;28;20508;-77
2023/10/21 12:38:39;;;;;;;16.00;1.50;;;;;;;;;;5016620;28;20427;-78
2023/10/21 12:43:37;;;;;;;15.38;1.40;;;;;;;;;;5000403;28;20413;-79
2023/10/21 12:46:22;;;;;;;15.15;1.20;;;;;;;;;;5013242;28;20417;-80
2023/10/21 12:48:55;;;;;;;16.35;2.20;;;;;;;;;;5016422;28;20757;-76
2023/10/21 12:51:36;;;;;;;16.95;1.40;;;;;;;;;;5003595;28;20471;-75
2023/10/21 12:54:09;;;;;;;14.90;1.50;;;;;;;;;;4994867;28;20784;-74
2023/10/21 12:56:42;;;;;;;19.95;2.08;;;;;;;;;;4997702;28;20413;-77
2023/10/21 12:59:10;;;;;;;16.50;1.50;;;;;;;;;;5008208;28;20475;-77
2023/10/21 13:01:39;;;;;;;23.35;2.17;;;;;;;;;;5014980;28;20409;-76
2023/10/21 13:04:06;;;;;;;16.67;1.63;;;;;;;;;;5012860;28;20568;-77
2023/10/21 13:06:33;;;;;;;14.30;1.40;;;;;;;;;;4990942;28;20923;-80
2023/10/21 13:09:00;;;;;;;17.55;2.20;;;;;;;;;;4996809;28;20893;-80
2023/10/21 13:11:27;;;;;;;14.60;1.52;;;;;;;;;;4995633;28;20956;-76
2023/10/21 13:13:54;;;;;;;15.45;1.63;;;;;;;;;;5015632;28;20447;-76
2023/10/21 13:16:22;;;;;;;16.30;1.90;;;;;;;;;;5019042;28;20420;-77
2023/10/21 13:18:49;;;;;;;17.88;1.40;;;;;;;;;;4989671;28;20821;-78
2023/10/21 13:21:18;;;;;;;17.00;2.00;;;;;;;;;;5000115;28;20471;-77
2023/10/21 13:23:45;;;;;;;17.40;1.40;;;;;;;;;;5016995;28;20407;-78
2023/10/21 13:26:12;;;;;;;14.60;1.35;;;;;;;;;;5016608;28;20480;-77
2023/10/21 13:28:38;;;;;;;16.70;1.47;;;;;;;;;;5011759;28;20413;-79
2023/10/21 13:31:08;;;;;;;14.88;1.30;;;;;;;;;;5019231;28;20408;-77
2023/10/21 13:33:37;;;;;;;15.20;1.60;;;;;;;;;;5014785;28;20443;-77
2023/10/21 13:36:07;;;;;;;16.60;1.70;;;;;;;;;;5013966;28;20928;-76
2023/10/21 13:38:34;;;;;;;15.40;1.38;;;;;;;;;;4996662;28;20408;-78
2023/10/21 13:41:03;;;;;;;16.83;1.58;;;;;;;;;;5014952;28;20885;-78
2023/10/21 13:43:29;;;;;;;17.02;1.60;;;;;;;;;;4997936;28;20459;-79
2023/10/21 13:45:56;;;;;;;16.25;1.85;;;;;;;;;;5011920;28;20421;-78
2023/10/21 13:48:22;;;;;;;15.20;1.50;;;;;;;;;;4994842;28;20420;-77
2023/10/21 13:50:50;;;;;;;15.90;1.25;;;;;;;;;;5013196;28;20835;-77
2023/10/21 13:53:17;;;;;;;17.38;1.50;;;;;;;;;;5014532;28;20425;-78
2023/10/21 13:55:44;;;;;;;15.48;1.30;;;;;;;;;;5001557;28;20457;-77
2023/10/21 13:58:11;;;;;;;16.05;1.50;;;;;;;;;;4996684;28;20419;-78
2023/10/21 14:00:38;;;;;;;15.80;2.00;;;;;;;;;;5001325;28;20492;-80
2023/10/21 14:03:09;;;;;;;16.52;1.50;;;;;;;;;;4996799;28;20447;-77
2023/10/21 14:05:37;;;;;;;15.65;1.40;;;;;;;;;;5004058;28;20876;-78
2023/10/21 14:08:10;;;;;;;15.63;1.60;;;;;;;;;;4996759;28;20470;-76
2023/10/21 14:10:39;;;;;;;15.48;1.70;;;;;;;;;;5004531;28;20501;-77
2023/10/21 14:13:15;;;;;;;18.40;1.40;;;;;;;;;;4999044;28;20428;-76
2023/10/21 14:15:43;;;;;;;16.10;1.50;;;;;;;;;;5001616;28;20416;-79
2023/10/21 14:18:09;;;;;;;15.70;1.40;;;;;;;;;;4991506;28;20452;-77
2023/10/21 14:20:41;;;;;;;15.32;1.27;;;;;;;;;;4993541;28;20425;-76
2023/10/21 14:23:12;;;;;;;15.15;1.52;;;;;;;;;;4982491;28;20423;-76
2023/10/21 14:25:39;;;;;;;15.07;1.30;;;;;;;;;;5015687;28;20824;-76
2023/10/21 14:28:10;;;;;;;14.40;1.30;;;;;;;;;;4992193;28;20421;-75
2023/10/21 14:30:38;;;;;;;14.40;1.35;;;;;;;;;;4992602;28;20420;-79
2023/10/21 14:33:05;;;;;;;18.17;1.60;;;;;;;;;;5001171;28;20432;-73
2023/10/21 14:35:31;;;;;;;16.35;1.50;;;;;;;;;;5014750;28;20919;-81
2023/10/21 14:38:00;;;;;;;15.87;1.90;;;;;;;;;;5014877;28;20423;-78
2023/10/21 14:40:29;;;;;;;14.45;1.20;;;;;;;;;;4999465;28;20422;-76
2023/10/21 14:42:59;;;;;;;15.93;1.63;;;;;;;;;;5003795;28;20448;-76
2023/10/21 14:45:27;;;;;;;15.97;1.60;;;;;;;;;;5018080;28;20467;-74
2023/10/21 14:47:55;;;;;;;15.15;1.40;;;;;;;;;;4996402;28;20426;-77
2023/10/21 14:50:23;;;;;;;16.20;1.42;;;;;;;;;;5001225;28;20412;-78
2023/10/21 14:52:50;;;;;;;14.60;1.50;;;;;;;;;;4997630;28;20420;-76
2023/10/21 14:55:17;;;;;;;16.87;1.30;;;;;;;;;;5017330;28;20500;-76
2023/10/21 14:57:45;;;;;;;15.00;1.60;;;;;;;;;;4997765;28;20529;-78
2023/10/21 15:00:15;;;;;;;16.00;1.50;;;;;;;;;;4995657;28;20413;-76
2023/10/21 15:02:46;;;;;;;15.90;1.60;;;;;;;;;;5017263;28;20675;-76
2023/10/21 15:05:16;;;;;;;17.08;1.70;;;;;;;;;;4997487;28;20467;-77
2023/10/21 15:07:43;;;;;;;17.50;1.70;;;;;;;;;;4996626;28;20429;-77
2023/10/21 15:10:10;;;;;;;16.05;1.50;;;;;;;;;;4998283;28;20765;-77
2023/10/21 15:12:40;;;;;;;16.08;1.63;;;;;;;;;;5001450;28;20424;-79
2023/10/21 15:15:13;;;;;;;16.70;1.15;;;;;;;;;;5007081;28;20419;-77
2023/10/21 15:17:47;;;;;;;17.67;1.90;;;;;;;;;;4975710;28;20440;-77